createdAt,value
2022-12-23T08:55:22.403Z,54.28
2022-12-23T08:57:51.000Z,54.88
2022-12-23T09:00:19.496Z,57.95
2022-12-23T09:02:48.229Z,54.88
2022-12-23T09:05:16.679Z,54.00
2022-12-23T09:07:45.330Z,59.17
2022-12-23T09:10:13.616Z,58.60
2022-12-23T09:12:42.283Z,55.85
2022-12-23T09:15:10.823Z,54.35
2022-12-23T09:17:39.085Z,51.80
2022-12-23T09:20:08.290Z,56.35
2022-12-23T09:22:36.573Z,52.97
2022-12-23T09:25:05.736Z,53.53
2022-12-23T09:27:34.122Z,47.85
2022-12-23T09:30:02.798Z,53.58
2022-12-23T09:32:31.926Z,55.78
2022-12-23T09:35:00.561Z,53.45
2022-12-23T09:37:28.925Z,59.22
2022-12-23T09:39:57.516Z,52.67
2022-12-23T09:42:56.813Z,53.03
2022-12-23T09:46:05.218Z,51.45
2022-12-23T09:48:48.368Z,55.55
2022-12-23T09:51:18.829Z,57.08
2022-12-23T09:54:05.928Z,62.45
2022-12-23T09:56:58.049Z,53.58
2022-12-23T10:02:36.158Z,58.08
2022-12-23T10:05:29.072Z,50.53
2022-12-23T10:08:04.315Z,55.13
2022-12-23T10:10:36.501Z,53.80
2022-12-23T10:13:07.604Z,56.17
2022-12-23T10:15:43.664Z,57.20
2022-12-23T10:18:26.083Z,50.75
2022-12-23T10:21:11.983Z,52.20
2022-12-23T10:23:43.075Z,64.13
2022-12-23T10:26:26.283Z,47.50
2022-12-23T10:29:21.742Z,57.00
2022-12-23T10:32:22.224Z,58.45
2022-12-23T10:34:56.795Z,59.10
2022-12-23T10:37:50.993Z,61.72
2022-12-23T10:40:28.614Z,57.22
2022-12-23T10:43:32.327Z,62.72
2022-12-23T10:46:25.412Z,64.18
2022-12-23T10:49:12.954Z,59.60
2022-12-23T10:51:53.729Z,63.78
2022-12-23T10:54:29.435Z,64.45
2022-12-23T10:56:58.242Z,69.65
2022-12-23T10:59:34.473Z,57.47
2022-12-23T11:02:15.526Z,63.80
2022-12-23T11:04:46.216Z,61.85
2022-12-23T11:10:21.299Z,59.58
2022-12-23T11:12:52.152Z,57.90
2022-12-23T11:15:35.844Z,65.65
2022-12-23T11:18:13.733Z,70.43
2022-12-23T11:20:44.267Z,67.03
2022-12-23T11:23:28.649Z,64.57
2022-12-23T11:26:19.721Z,69.07
2022-12-23T11:28:59.526Z,70.35
2022-12-23T11:31:32.612Z,66.22
2022-12-23T11:34:14.426Z,74.03
2022-12-23T11:36:43.152Z,64.20
2022-12-23T11:39:28.279Z,69.85
2022-12-23T11:42:13.052Z,76.25
2022-12-23T11:44:45.759Z,76.80
2022-12-23T11:47:23.069Z,69.47
2022-12-23T11:49:57.284Z,78.63
2022-12-23T11:52:30.347Z,71.50
2022-12-23T11:55:03.828Z,75.05
2022-12-23T11:57:48.484Z,73.53
2022-12-23T12:00:25.642Z,70.28
2022-12-23T12:02:55.809Z,82.47
2022-12-23T12:05:37.898Z,68.13
2022-12-23T12:10:38.095Z,76.57
2022-12-23T12:13:22.686Z,70.35
2022-12-23T12:16:15.818Z,84.40
2022-12-23T12:18:48.020Z,65.65
2022-12-23T12:21:23.587Z,76.28
2022-12-23T12:24:17.098Z,81.55
2022-12-23T12:26:51.455Z,79.85
2022-12-23T12:29:40.534Z,80.20
2022-12-23T12:32:43.970Z,79.13
2022-12-23T12:35:27.846Z,74.63
2022-12-23T12:38:17.719Z,70.75
2022-12-23T12:40:56.922Z,79.43
2022-12-23T12:43:32.583Z,77.93
2022-12-23T12:46:06.787Z,80.07
2022-12-23T12:48:50.454Z,80.13
2022-12-23T12:51:21.536Z,81.00
2022-12-23T12:56:53.733Z,87.43
2022-12-23T12:59:38.748Z,81.28
2022-12-23T13:02:36.076Z,94.10
2022-12-23T13:05:18.193Z,88.80
2022-12-23T13:10:42.247Z,79.63
2022-12-23T13:13:16.539Z,81.05
2022-12-23T13:16:03.956Z,87.80
2022-12-23T13:18:54.148Z,84.00
2022-12-23T13:21:26.939Z,74.60
2022-12-23T13:24:03.778Z,74.47
2022-12-23T13:26:37.531Z,77.57
2022-12-23T13:29:33.541Z,76.35
2022-12-23T13:32:02.195Z,78.43
2022-12-23T13:34:48.312Z,77.10
2022-12-23T13:37:31.431Z,74.35
2022-12-23T13:40:33.219Z,82.88
2022-12-23T13:43:12.131Z,74.70
2022-12-23T13:45:40.989Z,75.57
2022-12-23T13:48:35.071Z,68.43
2022-12-23T13:51:16.789Z,78.78
2022-12-23T13:54:26.445Z,78.18
2022-12-23T13:57:08.540Z,72.50
2022-12-23T13:59:42.722Z,66.43
2022-12-23T14:02:35.439Z,64.53
2022-12-23T14:05:16.364Z,74.25
2022-12-23T14:07:45.448Z,66.70
2022-12-23T14:10:21.789Z,63.17
2022-12-23T14:12:52.209Z,78.10
2022-12-23T14:15:39.261Z,78.97
2022-12-23T14:18:16.734Z,68.07
2022-12-23T14:21:02.601Z,68.75
2022-12-23T14:23:50.177Z,71.00
2022-12-23T14:26:47.843Z,75.45
2022-12-23T14:30:12.742Z,70.90
2022-12-23T14:32:51.893Z,74.35
2022-12-23T14:35:38.338Z,75.75
2022-12-23T14:38:16.447Z,72.03
2022-12-23T14:40:56.567Z,66.65
2022-12-23T14:43:52.834Z,69.93
2022-12-23T14:46:35.933Z,69.28
2022-12-23T14:49:41.340Z,66.97
2022-12-23T14:52:44.462Z,63.97
2022-12-23T14:55:39.194Z,68.72
2022-12-23T14:58:15.003Z,62.22
2022-12-23T15:01:10.980Z,66.32
2022-12-23T15:03:57.408Z,64.82
2022-12-23T15:06:32.426Z,61.20
2022-12-23T15:09:00.898Z,61.75
2022-12-23T15:11:34.958Z,103.63
2022-12-23T15:14:10.976Z,74.85
2022-12-23T15:16:45.004Z,72.85
2022-12-23T15:19:19.453Z,73.85
2022-12-23T15:21:54.470Z,64.80
2022-12-23T15:24:28.735Z,73.05
2022-12-23T15:27:25.293Z,68.00
2022-12-23T15:29:52.686Z,66.93
2022-12-23T15:32:23.394Z,74.35
2022-12-23T15:34:52.466Z,69.00
2022-12-23T15:37:32.604Z,63.67
2022-12-23T15:40:11.596Z,62.20
2022-12-23T15:42:47.885Z,69.80
2022-12-23T15:45:37.286Z,61.25
2022-12-23T15:48:07.551Z,56.28
2022-12-23T15:50:40.640Z,58.05
2022-12-23T15:53:13.044Z,66.53
2022-12-23T15:55:41.581Z,56.20
2022-12-23T15:58:20.770Z,57.22
2022-12-23T16:00:54.475Z,60.75
2022-12-23T16:03:51.284Z,61.50
2022-12-23T16:06:34.539Z,61.55
2022-12-23T16:09:06.683Z,67.25
2022-12-23T16:12:00.640Z,63.97
2022-12-23T16:14:35.179Z,64.85
2022-12-23T16:17:09.382Z,59.17
2022-12-23T16:19:53.591Z,59.33
2022-12-23T16:22:33.829Z,62.92
2022-12-23T16:25:05.226Z,69.25
2022-12-23T16:27:41.764Z,61.33
2022-12-23T16:30:21.638Z,58.17
2022-12-23T16:32:54.843Z,54.08
2022-12-23T16:35:34.042Z,59.95
2022-12-23T16:38:17.453Z,64.85
2022-12-23T16:40:48.775Z,61.90
2022-12-23T16:43:18.146Z,50.92
2022-12-23T16:45:50.552Z,63.85
2022-12-23T16:48:31.008Z,59.17
2022-12-23T16:51:01.148Z,56.17
2022-12-23T16:53:29.513Z,60.55
2022-12-23T16:56:00.858Z,60.28
2022-12-23T16:58:30.222Z,65.07
2022-12-23T17:00:59.013Z,57.08
2022-12-23T17:03:27.370Z,62.40
2022-12-23T17:05:56.046Z,76.72
2022-12-23T17:08:24.382Z,68.60
2022-12-23T17:10:53.198Z,71.60
2022-12-23T17:13:21.733Z,81.70
2022-12-23T17:15:50.351Z,72.13
2022-12-23T17:18:19.201Z,77.22
2022-12-23T17:20:48.832Z,73.38
2022-12-23T17:23:29.114Z,71.63
2022-12-23T17:25:58.273Z,61.70
2022-12-23T17:28:31.893Z,70.93
2022-12-23T17:31:00.964Z,71.60
2022-12-23T17:33:31.826Z,69.88
2022-12-23T17:36:00.878Z,73.22
2022-12-23T17:38:30.100Z,64.80
2022-12-23T17:40:59.146Z,61.50
2022-12-23T17:43:27.748Z,70.80
2022-12-23T17:45:56.795Z,70.45
2022-12-23T17:48:31.193Z,66.00
2022-12-23T17:51:00.571Z,71.50
2022-12-23T17:53:28.837Z,62.13
2022-12-23T17:55:57.545Z,61.75
2022-12-23T17:58:25.802Z,63.97
2022-12-23T18:00:54.554Z,65.70
2022-12-23T18:03:24.338Z,66.13
2022-12-23T18:05:59.388Z,66.78
2022-12-23T18:08:30.149Z,61.58
2022-12-23T18:10:59.463Z,67.32
2022-12-23T18:13:28.457Z,63.17
2022-12-23T18:15:57.534Z,63.33
2022-12-23T18:18:37.703Z,59.45
2022-12-23T18:21:17.684Z,63.30
2022-12-23T18:23:45.962Z,62.38
2022-12-23T18:26:15.561Z,64.05
2022-12-23T18:28:44.347Z,58.47
2022-12-23T18:31:24.583Z,60.90
2022-12-23T18:33:53.117Z,54.67
2022-12-23T18:36:31.503Z,52.15
2022-12-23T18:38:59.938Z,55.13
2022-12-23T18:41:28.708Z,56.25
2022-12-23T18:43:57.560Z,50.67
2022-12-23T18:46:26.310Z,55.65
2022-12-23T18:48:54.975Z,62.90
2022-12-23T18:51:23.626Z,62.15
2022-12-23T18:53:52.009Z,56.53
2022-12-23T18:56:21.384Z,58.83
2022-12-23T18:58:49.861Z,55.97
2022-12-23T19:01:19.623Z,53.60
2022-12-23T19:03:48.276Z,55.35
2022-12-23T19:06:17.025Z,58.90
2022-12-23T19:08:45.754Z,56.78
2022-12-23T19:11:18.989Z,56.30
2022-12-23T19:13:47.890Z,57.42
2022-12-23T19:16:18.825Z,57.60
2022-12-23T19:18:48.386Z,58.60
2022-12-23T19:21:17.976Z,53.45
2022-12-23T19:23:46.275Z,53.80
2022-12-23T19:26:15.801Z,54.35
2022-12-23T19:28:44.307Z,49.85
2022-12-23T19:31:14.839Z,56.78
2022-12-23T19:33:44.978Z,54.65
2022-12-23T19:36:15.665Z,54.50
2022-12-23T19:38:43.988Z,63.55
2022-12-23T19:41:12.652Z,61.35
2022-12-23T19:43:42.508Z,57.97
2022-12-23T19:46:12.142Z,61.42
2022-12-23T19:48:40.545Z,60.85
2022-12-23T19:51:13.899Z,55.97
2022-12-23T19:53:42.923Z,54.78
2022-12-23T19:56:16.288Z,62.03
2022-12-23T19:58:45.022Z,63.83
2022-12-23T20:01:19.090Z,55.17
2022-12-23T20:03:48.976Z,62.40
2022-12-23T20:06:23.569Z,62.67
2022-12-23T20:08:58.060Z,53.30
2022-12-23T20:11:30.935Z,56.53
2022-12-23T20:14:00.349Z,66.90
2022-12-23T20:16:29.542Z,63.00
2022-12-23T20:18:58.013Z,64.75
2022-12-23T20:21:26.728Z,65.50
2022-12-23T20:23:55.020Z,61.67
2022-12-23T20:26:27.755Z,58.92
2022-12-23T20:28:57.076Z,68.50
2022-12-23T20:31:31.546Z,66.05
2022-12-23T20:34:01.718Z,80.63
2022-12-23T20:36:33.216Z,73.80
2022-12-23T20:39:03.566Z,72.90
2022-12-23T20:41:33.069Z,74.73
2022-12-23T20:46:50.293Z,70.75
2022-12-23T20:49:21.355Z,80.80
2022-12-23T20:51:50.162Z,74.35
2022-12-23T20:54:18.487Z,70.07
2022-12-23T20:56:47.082Z,77.95
2022-12-23T20:59:15.419Z,91.38
2022-12-23T21:01:44.207Z,82.38
2022-12-23T21:04:16.031Z,76.88
2022-12-23T21:06:45.398Z,80.00
2022-12-23T21:09:14.767Z,77.90
2022-12-23T21:11:45.544Z,72.22
2022-12-23T21:14:14.764Z,83.68
2022-12-23T21:16:43.941Z,78.05
2022-12-23T21:19:20.017Z,74.45
2022-12-23T21:21:49.429Z,81.95
2022-12-23T21:24:17.979Z,83.22
2022-12-23T21:26:51.863Z,83.68
2022-12-23T21:29:24.659Z,87.43
2022-12-23T21:31:53.502Z,84.68
2022-12-23T21:34:21.872Z,89.32
2022-12-23T21:36:50.704Z,88.68
2022-12-23T21:39:19.920Z,82.10
2022-12-23T21:41:51.140Z,86.40
2022-12-23T21:44:19.584Z,87.05
2022-12-23T21:46:52.740Z,88.80
2022-12-23T21:49:21.541Z,93.68
2022-12-23T21:51:51.531Z,83.60
2022-12-23T21:54:19.927Z,79.68
2022-12-23T21:56:48.515Z,77.25
2022-12-23T21:59:16.869Z,88.53
2022-12-23T22:01:45.625Z,77.43
2022-12-23T22:04:14.004Z,78.20
2022-12-23T22:06:44.416Z,79.68
2022-12-23T22:09:18.217Z,83.88
2022-12-23T22:11:47.983Z,80.68
2022-12-23T22:14:18.280Z,84.45
2022-12-23T22:16:47.034Z,89.30
2022-12-23T22:19:15.604Z,81.30
2022-12-23T22:21:44.376Z,78.13
2022-12-23T22:24:12.948Z,84.03
2022-12-23T22:26:41.926Z,76.22
2022-12-23T22:29:11.833Z,79.18
2022-12-23T22:31:49.848Z,85.70
2022-12-23T22:34:20.853Z,88.72
2022-12-23T22:36:50.449Z,81.32
2022-12-23T22:39:21.846Z,86.80
2022-12-23T22:41:52.026Z,82.38
2022-12-23T22:44:21.250Z,89.32
2022-12-23T22:46:50.135Z,88.32
2022-12-23T22:49:18.642Z,94.93
2022-12-23T22:51:47.348Z,100.07
2022-12-23T22:54:15.657Z,90.78
2022-12-23T22:56:46.002Z,110.93
2022-12-23T22:59:23.542Z,100.63
2022-12-23T23:01:53.201Z,108.28
2022-12-23T23:04:21.583Z,109.35
2022-12-23T23:06:50.513Z,101.93
2022-12-23T23:09:21.145Z,101.15
2022-12-23T23:11:50.478Z,107.97
2022-12-23T23:14:19.553Z,110.78
2022-12-23T23:16:48.416Z,103.93
